Time;durP1;ratioP1;P1;durP2;ratioP2;P2;SDS_P1;SDS_P2;PMS_P1;PMS_P2;Temp;Humidity;BMP_temperature;BMP_pressure;BME280_temperature;BME280_humidity;BME280_pressure;Samples;Min_cycle;Max_cycle;Signal;HPM_P1;HPM_P2
2022/06/27 00:00:48;;;;;;;5.70;5.15;;;21.10;99.90;21.20;100396.00;;;;4900095;28;97252;-59
2022/06/27 00:03:15;;;;;;;6.25;4.88;;;21.00;99.90;21.20;100400.00;;;;4897732;28;90743;-58
2022/06/27 00:05:41;;;;;;;8.93;6.50;;;21.00;99.90;21.10;100390.00;;;;4900036;28;89034;-59
2022/06/27 00:08:06;;;;;;;5.50;4.90;;;20.90;99.90;21.00;100389.00;;;;4897205;28;106979;-59
2022/06/27 00:10:32;;;;;;;8.50;5.90;;;20.90;99.90;21.00;100391.00;;;;4900277;28;101852;-59
2022/06/27 00:12:58;;;;;;;6.45;5.22;;;20.80;99.90;20.90;100393.00;;;;4902825;28;104778;-59
2022/06/27 00:15:33;;;;;;;13.07;5.78;;;20.80;99.90;20.90;100379.00;;;;4898901;28;117733;-59
2022/06/27 00:17:58;;;;;;;8.68;5.40;;;20.70;99.90;20.80;100373.00;;;;4899974;28;87184;-60
2022/06/27 00:20:24;;;;;;;9.88;6.10;;;20.70;99.90;20.80;100380.00;;;;4913954;28;104468;-59
2022/06/27 00:22:52;;;;;;;6.53;5.85;;;20.60;99.90;20.70;100377.00;;;;4921617;28;89418;-60
2022/06/27 00:25:18;;;;;;;8.30;6.45;;;20.50;99.90;20.60;100376.00;;;;4911746;28;88679;-59
2022/06/27 00:27:44;;;;;;;6.30;4.05;;;20.50;99.90;20.60;100375.00;;;;4901374;28;92892;-59
2022/06/27 00:30:11;;;;;;;7.40;5.50;;;20.40;99.90;20.50;100388.00;;;;4900327;28;108726;-59
2022/06/27 00:32:37;;;;;;;9.45;6.05;;;20.40;99.90;20.50;100378.00;;;;4899173;28;88842;-59
2022/06/27 00:35:05;;;;;;;5.28;4.78;;;20.40;99.90;20.50;100377.00;;;;4899763;28;87966;-59
2022/06/27 00:37:31;;;;;;;6.03;5.15;;;20.40;99.90;20.50;100376.00;;;;4893817;28;87712;-59
2022/06/27 00:40:34;;;;;;;8.35;5.22;;;20.40;99.90;20.40;100377.00;;;;4897117;28;101656;-59
2022/06/27 00:43:00;;;;;;;7.70;5.55;;;20.30;99.90;20.40;100371.00;;;;4897961;28;114777;-59
2022/06/27 00:45:26;;;;;;;7.03;5.43;;;20.30;99.90;20.40;100371.00;;;;4899507;28;115425;-59
2022/06/27 00:47:51;;;;;;;7.63;5.38;;;20.20;99.90;20.30;100365.00;;;;4898534;28;89469;-59
2022/06/27 00:50:20;;;;;;;5.90;4.15;;;20.20;99.90;20.30;100361.00;;;;4898438;28;88604;-58
2022/06/27 00:52:46;;;;;;;5.97;5.07;;;20.10;99.90;20.30;100363.00;;;;4899627;28;117167;-59
2022/06/27 00:55:12;;;;;;;5.78;5.18;;;20.10;99.90;20.20;100358.00;;;;4915097;28;87809;-59
2022/06/27 00:57:39;;;;;;;6.93;5.47;;;20.10;99.90;20.20;100376.00;;;;4897537;28;109663;-59
2022/06/27 01:00:06;;;;;;;6.18;5.18;;;20.00;99.90;20.20;100372.00;;;;4893886;28;109400;-59
2022/06/27 01:02:32;;;;;;;7.72;4.88;;;20.00;99.90;20.10;100374.00;;;;4899551;28;88217;-59
2022/06/27 01:04:58;;;;;;;6.13;5.07;;;20.00;99.90;20.10;100381.00;;;;4921913;28;87892;-59
2022/06/27 01:07:23;;;;;;;6.68;4.90;;;20.00;99.90;20.10;100372.00;;;;4895806;28;109539;-59
2022/06/27 01:09:50;;;;;;;6.70;5.53;;;20.00;99.90;20.10;100379.00;;;;4905513;28;109577;-59
2022/06/27 01:12:15;;;;;;;5.90;4.82;;;20.00;99.90;20.10;100378.00;;;;4896294;28;89560;-59
2022/06/27 01:14:43;;;;;;;6.45;4.97;;;20.00;99.90;20.10;100384.00;;;;4880468;28;116217;-58
2022/06/27 01:17:11;;;;;;;6.38;5.25;;;20.00;99.90;20.10;100387.00;;;;4917610;28;88223;-59
2022/06/27 01:19:38;;;;;;;6.20;5.60;;;19.90;99.90;20.00;100379.00;;;;4906262;28;87738;-57
2022/06/27 01:22:10;;;;;;;5.90;4.60;;;19.90;99.90;19.90;100381.00;;;;4898054;28;89658;-59
2022/06/27 01:24:48;;;;;;;7.57;5.85;;;19.80;99.90;19.90;100385.00;;;;4898454;28;103963;-59
2022/06/27 01:27:15;;;;;;;5.72;5.15;;;19.80;99.90;19.90;100391.00;;;;4907966;28;110183;-58
2022/06/27 01:29:40;;;;;;;6.28;4.95;;;19.70;99.90;19.90;100395.00;;;;4900753;28;87447;-59
2022/06/27 01:32:07;;;;;;;5.40;4.90;;;19.70;99.90;19.80;100398.00;;;;4897409;28;114911;-58
2022/06/27 01:34:39;;;;;;;6.35;4.65;;;19.70;99.90;19.80;100394.00;;;;4895858;28;99495;-59
2022/06/27 01:37:06;;;;;;;6.18;4.93;;;19.60;99.90;19.80;100397.00;;;;4897177;28;87714;-59
2022/06/27 01:39:31;;;;;;;5.30;4.75;;;19.60;99.90;19.80;100396.00;;;;4896640;28;101174;-59
2022/06/27 01:42:01;;;;;;;5.90;5.35;;;19.60;99.90;19.70;100394.00;;;;4898609;28;116593;-59
2022/06/27 01:44:30;;;;;;;6.38;4.88;;;19.60;99.90;19.70;100390.00;;;;4898995;28;89908;-58
2022/06/27 01:46:59;;;;;;;5.68;5.05;;;19.60;99.90;19.70;100389.00;;;;4899503;28;87770;-59
2022/06/27 01:49:25;;;;;;;7.25;5.53;;;19.50;99.90;19.70;100395.00;;;;4898449;28;87904;-59
2022/06/27 01:51:51;;;;;;;4.82;4.25;;;19.50;99.90;19.60;100386.00;;;;4898100;28;88597;-59
2022/06/27 01:54:20;;;;;;;6.22;4.75;;;19.50;99.90;19.60;100396.00;;;;4897103;28;118032;-59
2022/06/27 01:56:46;;;;;;;7.60;6.07;;;19.50;99.90;19.60;100394.00;;;;4898388;28;86884;-59
2022/06/27 01:59:14;;;;;;;7.57;5.38;;;19.50;99.90;19.60;100398.00;;;;4897548;28;87941;-59
2022/06/27 02:01:42;;;;;;;6.05;4.88;;;19.50;99.90;19.60;100395.00;;;;4896830;28;88285;-59
2022/06/27 02:04:10;;;;;;;7.53;5.57;;;19.50;99.90;19.60;100396.00;;;;4879257;28;88932;-59
2022/06/27 02:06:36;;;;;;;6.25;5.13;;;19.40;99.90;19.50;100390.00;;;;4897680;28;87691;-59
2022/06/27 02:09:05;;;;;;;9.10;5.55;;;19.40;99.90;19.50;100389.00;;;;4881751;28;87945;-59
2022/06/27 02:11:31;;;;;;;5.93;4.65;;;19.40;99.90;19.50;100390.00;;;;4897045;28;88387;-60
2022/06/27 02:13:58;;;;;;;6.53;5.25;;;19.40;99.90;19.50;100393.00;;;;4898224;28;117945;-59
2022/06/27 02:16:25;;;;;;;5.25;4.65;;;19.30;99.90;19.40;100397.00;;;;4900982;28;87888;-59
2022/06/27 02:18:51;;;;;;;7.10;5.38;;;19.30;99.90;19.40;100403.00;;;;4897122;28;87801;-59
2022/06/27 02:21:29;;;;;;;12.23;5.97;;;19.30;99.90;19.30;100396.00;;;;4900882;28;87976;-59
2022/06/27 02:23:55;;;;;;;7.50;6.22;;;19.20;99.90;19.20;100396.00;;;;4900634;28;88086;-59
2022/06/27 02:26:28;;;;;;;9.90;5.97;;;19.10;99.90;19.20;100401.00;;;;4900493;28;87799;-59
2022/06/27 02:28:54;;;;;;;7.75;5.82;;;19.10;99.90;19.20;100405.00;;;;4903367;28;88837;-59
2022/06/27 02:31:21;;;;;;;7.60;5.72;;;19.00;99.90;19.20;100393.00;;;;4900427;28;88230;-56
2022/06/27 02:33:48;;;;;;;6.38;5.13;;;19.00;99.90;19.10;100388.00;;;;4901926;28;88839;-58
2022/06/27 02:36:26;;;;;;;7.63;5.38;;;19.00;99.90;19.10;100390.00;;;;4901390;28;87713;-59
2022/06/27 02:38:54;;;;;;;6.78;5.57;;;19.00;99.90;19.10;100382.00;;;;4913728;28;87721;-58
2022/06/27 02:41:21;;;;;;;6.43;4.97;;;19.00;99.90;19.10;100384.00;;;;4918790;28;88994;-58
2022/06/27 02:43:49;;;;;;;7.35;5.80;;;19.00;99.90;19.10;100395.00;;;;4886043;28;87941;-58
2022/06/27 02:46:15;;;;;;;6.45;4.85;;;18.90;99.90;19.00;100397.00;;;;4883131;28;91080;-59
2022/06/27 02:48:48;;;;;;;6.03;5.43;;;18.90;99.90;19.00;100405.00;;;;4902353;28;109236;-59
2022/06/27 02:51:17;;;;;;;5.57;4.53;;;18.90;99.90;19.00;100407.00;;;;4902033;28;88654;-59
2022/06/27 02:53:58;;;;;;;5.50;4.97;;;18.90;99.90;19.00;100407.00;;;;4899945;28;97387;-60
2022/06/27 02:56:27;;;;;;;5.18;4.55;;;18.90;99.90;19.00;100414.00;;;;4900984;28;98787;-60
2022/06/27 02:59:11;;;;;;;4.47;3.90;;;18.90;99.90;19.00;100418.00;;;;4904393;28;87692;-58
2022/06/27 03:01:42;;;;;;;6.35;5.38;;;18.90;99.90;19.00;100417.00;;;;4882412;28;88316;-59
2022/06/27 03:04:07;;;;;;;5.22;4.72;;;18.90;99.90;19.00;100413.00;;;;4900946;28;88526;-59
2022/06/27 03:06:33;;;;;;;7.03;5.25;;;18.90;99.90;19.00;100420.00;;;;4899343;28;110540;-60
2022/06/27 03:08:59;;;;;;;7.43;5.53;;;18.90;99.90;19.10;100418.00;;;;4901277;28;87744;-58
2022/06/27 03:11:25;;;;;;;6.53;5.45;;;18.90;99.90;19.10;100416.00;;;;4902110;28;105346;-59
2022/06/27 03:13:53;;;;;;;5.38;4.88;;;18.90;99.90;19.10;100419.00;;;;4901197;28;87931;-59
2022/06/27 03:16:23;;;;;;;9.00;6.32;;;18.90;99.90;19.00;100425.00;;;;4900014;28;87871;-59
2022/06/27 03:18:50;;;;;;;6.13;4.93;;;18.90;99.90;19.00;100422.00;;;;4902853;28;88509;-59
2022/06/27 03:21:17;;;;;;;7.70;5.50;;;18.90;99.90;19.00;100422.00;;;;4901427;28;88061;-59
2022/06/27 03:23:48;;;;;;;5.82;4.57;;;18.90;99.90;19.00;100417.00;;;;4898950;28;88751;-59
2022/06/27 03:26:15;;;;;;;9.10;6.50;;;18.90;99.90;19.00;100408.00;;;;4900985;28;87699;-59
2022/06/27 03:28:43;;;;;;;7.28;5.13;;;18.90;99.90;19.00;100408.00;;;;4900367;28;87583;-60
2022/06/27 03:31:09;;;;;;;5.28;4.65;;;18.90;99.90;19.00;100406.00;;;;4901659;28;88207;-59
2022/06/27 03:33:36;;;;;;;7.85;5.18;;;18.90;99.90;19.00;100397.00;;;;4901671;28;88148;-58
2022/06/27 03:36:04;;;;;;;5.40;4.97;;;18.90;99.90;19.00;100407.00;;;;4900657;28;87132;-59
2022/06/27 03:38:29;;;;;;;7.15;5.25;;;18.90;99.90;19.00;100412.00;;;;4905012;28;100598;-60
2022/06/27 03:40:55;;;;;;;5.68;5.15;;;18.90;99.90;19.10;100410.00;;;;4898894;28;112932;-59
2022/06/27 03:43:21;;;;;;;7.38;5.45;;;18.90;99.90;19.10;100404.00;;;;4899493;28;88913;-59
2022/06/27 03:45:47;;;;;;;9.05;6.90;;;18.90;99.90;19.20;100406.00;;;;4898884;28;110151;-60
2022/06/27 03:49:59;;;;;;;7.57;5.22;;;19.00;99.90;19.20;100411.00;;;;4901049;28;87831;-59
2022/06/27 03:50:58;;;;;;;6.97;5.13;;;19.10;99.90;19.30;100402.00;;;;4900694;28;88918;-59
2022/06/27 03:53:24;;;;;;;5.68;4.78;;;19.10;99.90;19.40;100409.00;;;;4900180;28;87874;-60
2022/06/27 03:55:50;;;;;;;5.45;4.95;;;19.20;99.90;19.50;100412.00;;;;4898483;28;94512;-59
2022/06/27 03:58:16;;;;;;;5.53;4.85;;;19.30;99.90;19.60;100409.00;;;;4882632;28;87870;-59
2022/06/27 04:00:41;;;;;;;9.27;5.35;;;19.40;99.90;19.70;100413.00;;;;4900104;28;116220;-59
2022/06/27 04:03:07;;;;;;;5.80;5.20;;;19.50;99.90;19.80;100414.00;;;;4901736;28;106141;-58
2022/06/27 04:05:33;;;;;;;4.90;4.15;;;19.60;99.90;19.90;100405.00;;;;4881900;28;87758;-59
2022/06/27 04:07:59;;;;;;;7.45;5.10;;;19.70;99.90;20.00;100413.00;;;;4897879;28;88817;-60
2022/06/27 04:10:25;;;;;;;5.93;5.40;;;19.80;99.90;20.10;100421.00;;;;4898409;28;88609;-60
2022/06/27 04:12:51;;;;;;;5.05;3.95;;;19.90;99.90;20.20;100428.00;;;;4897745;28;116899;-59
2022/06/27 04:15:17;;;;;;;5.82;4.63;;;20.00;99.90;20.40;100426.00;;;;4899310;28;111314;-60
2022/06/27 04:17:42;;;;;;;6.32;4.05;;;20.10;99.90;20.50;100418.00;;;;4899281;28;108973;-60
2022/06/27 04:20:09;;;;;;;6.95;4.57;;;20.20;99.90;20.60;100418.00;;;;4897666;28;117524;-60
2022/06/27 04:22:34;;;;;;;5.18;4.22;;;20.30;99.90;20.70;100422.00;;;;4899858;28;100224;-58
2022/06/27 04:25:02;;;;;;;9.48;5.18;;;20.40;99.90;20.80;100416.00;;;;4906697;28;87453;-59
2022/06/27 04:27:28;;;;;;;4.25;3.85;;;20.50;99.90;20.90;100410.00;;;;4900416;28;87897;-58
2022/06/27 04:29:54;;;;;;;5.88;4.60;;;20.70;99.90;21.10;100411.00;;;;4898105;28;110357;-60
2022/06/27 04:32:22;;;;;;;5.53;3.60;;;20.80;99.90;21.20;100411.00;;;;4897909;28;88822;-58
2022/06/27 04:34:49;;;;;;;3.83;2.97;;;20.90;99.90;21.30;100418.00;;;;4897823;28;100972;-60
2022/06/27 04:37:16;;;;;;;6.63;5.07;;;21.00;99.90;21.50;100421.00;;;;4898336;28;87936;-60
2022/06/27 04:39:43;;;;;;;5.05;3.70;;;21.20;99.90;21.70;100421.00;;;;4892234;28;88979;-60
2022/06/27 04:42:09;;;;;;;4.25;3.85;;;21.40;99.90;21.80;100418.00;;;;4878553;28;107393;-60
2022/06/27 04:44:36;;;;;;;4.20;3.63;;;21.50;99.90;22.00;100422.00;;;;4879090;28;87617;-60
2022/06/27 04:47:08;;;;;;;4.18;3.60;;;21.70;99.90;22.10;100418.00;;;;4878795;28;87693;-60
2022/06/27 04:49:35;;;;;;;3.85;3.40;;;21.80;99.90;22.30;100399.00;;;;4880076;28;87233;-60
2022/06/27 04:52:03;;;;;;;2.97;2.60;;;22.00;99.90;22.40;100399.00;;;;4885384;28;87853;-60
2022/06/27 04:54:29;;;;;;;4.30;3.90;;;22.20;99.90;22.60;100391.00;;;;4890548;28;87830;-60
2022/06/27 04:56:54;;;;;;;4.38;3.22;;;22.30;99.90;22.80;100391.00;;;;4875003;28;88911;-59
2022/06/27 04:59:21;;;;;;;3.60;3.30;;;22.50;99.90;22.90;100389.00;;;;4878144;28;87966;-60
2022/06/27 05:01:50;;;;;;;6.15;3.75;;;22.50;99.90;23.10;100391.00;;;;4888160;28;88536;-60
2022/06/27 05:04:17;;;;;;;4.65;3.58;;;22.80;99.90;23.20;100394.00;;;;4898395;28;87835;-60
2022/06/27 05:06:45;;;;;;;3.45;3.17;;;22.90;99.90;23.30;100387.00;;;;4884323;28;87910;-60
2022/06/27 05:09:11;;;;;;;5.05;4.07;;;23.10;99.90;23.50;100397.00;;;;4862707;28;87724;-58
2022/06/27 05:11:36;;;;;;;5.38;3.83;;;23.20;99.90;23.60;100390.00;;;;4880464;28;87910;-60
2022/06/27 05:14:02;;;;;;;7.05;3.70;;;23.30;99.90;23.80;100392.00;;;;4878241;28;110091;-60
2022/06/27 05:16:28;;;;;;;4.93;3.70;;;23.50;99.90;24.00;100391.00;;;;4877519;28;108900;-60
2022/06/27 05:18:54;;;;;;;3.40;3.08;;;23.70;99.90;24.20;100385.00;;;;4877274;28;117609;-60
2022/06/27 05:21:20;;;;;;;5.53;3.55;;;23.90;99.90;24.40;100396.00;;;;4878387;28;88807;-60
2022/06/27 05:23:45;;;;;;;3.53;3.10;;;24.10;99.90;24.60;100403.00;;;;4882118;28;87688;-60
2022/06/27 05:26:11;;;;;;;4.20;3.72;;;24.30;99.90;24.90;100404.00;;;;4883235;28;109184;-60
2022/06/27 05:28:37;;;;;;;3.38;2.88;;;24.50;99.90;25.10;100408.00;;;;4877135;28;117836;-60
2022/06/27 05:31:05;;;;;;;3.38;2.63;;;24.70;99.90;25.30;100409.00;;;;4877011;28;117877;-60
2022/06/27 05:33:30;;;;;;;3.05;2.63;;;25.00;99.90;25.60;100409.00;;;;4889094;28;87687;-60
2022/06/27 05:35:56;;;;;;;6.22;2.90;;;25.20;99.90;25.80;100410.00;;;;4895080;28;108829;-61
2022/06/27 05:38:22;;;;;;;3.03;2.38;;;25.40;99.90;26.10;100404.00;;;;4897079;28;88549;-61
2022/06/27 05:40:48;;;;;;;4.20;2.72;;;25.70;99.90;26.40;100412.00;;;;4897620;28;87971;-62
2022/06/27 05:43:14;;;;;;;2.70;2.50;;;26.00;98.70;26.60;100423.00;;;;4897037;28;89744;-61
2022/06/27 05:45:40;;;;;;;2.92;2.33;;;26.20;97.50;26.80;100419.00;;;;4896146;28;88708;-62
2022/06/27 05:48:07;;;;;;;2.55;1.95;;;26.40;96.10;26.90;100413.00;;;;4896333;28;88768;-60
2022/06/27 05:50:33;;;;;;;2.05;1.85;;;26.60;94.70;27.00;100418.00;;;;4895936;28;88389;-61
2022/06/27 05:53:01;;;;;;;2.88;1.80;;;26.70;94.00;27.10;100417.00;;;;4895248;28;109752;-61
2022/06/27 05:55:32;;;;;;;2.67;1.80;;;26.80;94.00;27.20;100411.00;;;;4895787;28;87507;-61
2022/06/27 05:58:00;;;;;;;2.45;1.75;;;26.90;92.90;27.30;100411.00;;;;4895872;28;88329;-62
2022/06/27 06:00:27;;;;;;;2.85;1.50;;;27.00;92.10;27.40;100413.00;;;;4896277;28;88800;-62
2022/06/27 06:02:54;;;;;;;2.40;2.20;;;27.10;91.70;27.50;100422.00;;;;4896004;28;87436;-62
2022/06/27 06:05:32;;;;;;;3.45;2.28;;;27.10;90.90;27.60;100423.00;;;;4896408;28;87708;-62
2022/06/27 06:08:06;;;;;;;2.47;1.90;;;27.20;90.30;27.70;100420.00;;;;4898865;28;88769;-62
2022/06/27 06:10:33;;;;;;;2.03;1.73;;;27.40;90.20;27.90;100434.00;;;;4895535;28;88541;-62
2022/06/27 06:13:01;;;;;;;2.03;1.83;;;27.50;90.10;28.10;100428.00;;;;4898224;28;88005;-61
2022/06/27 06:15:28;;;;;;;2.05;1.75;;;27.70;88.60;28.20;100425.00;;;;4896736;28;87553;-61
2022/06/27 06:17:55;;;;;;;2.15;1.73;;;27.80;85.00;28.40;100422.00;;;;4896723;28;90752;-61
2022/06/27 06:20:22;;;;;;;2.50;1.55;;;28.00;84.90;28.60;100419.00;;;;4897802;28;87526;-62
2022/06/27 06:22:47;;;;;;;2.47;1.70;;;28.20;83.00;28.80;100422.00;;;;4901378;28;87712;-62
2022/06/27 06:25:13;;;;;;;2.55;1.63;;;28.40;80.60;28.90;100422.00;;;;4896085;28;95836;-61
2022/06/27 06:27:40;;;;;;;1.67;1.40;;;28.50;80.30;29.20;100424.00;;;;4906709;28;115119;-62
2022/06/27 06:30:07;;;;;;;1.45;1.20;;;28.70;78.50;29.40;100425.00;;;;4896496;28;87964;-61
2022/06/27 06:32:37;;;;;;;1.90;1.65;;;28.90;78.00;29.60;100420.00;;;;4896510;28;93839;-62
2022/06/27 06:35:04;;;;;;;2.63;1.23;;;29.20;76.80;29.80;100411.00;;;;4897118;28;88755;-62
2022/06/27 06:37:31;;;;;;;1.27;1.17;;;29.40;75.00;30.00;100418.00;;;;4897311;28;87993;-61
2022/06/27 06:39:57;;;;;;;4.32;1.23;;;29.60;70.00;30.00;100403.00;;;;4895198;28;87712;-62
2022/06/27 06:42:23;;;;;;;3.88;1.58;;;29.70;67.30;30.10;100405.00;;;;4896383;28;87428;-62
2022/06/27 06:44:52;;;;;;;2.60;1.70;;;29.70;67.00;30.20;100414.00;;;;4896705;28;87629;-61
2022/06/27 06:47:19;;;;;;;2.13;1.50;;;29.80;66.20;30.30;100402.00;;;;4896168;28;89151;-63
2022/06/27 06:49:46;;;;;;;2.05;1.33;;;29.90;63.30;30.30;100411.00;;;;4895745;28;89106;-62
2022/06/27 06:52:13;;;;;;;3.63;1.10;;;30.00;62.50;30.30;100403.00;;;;4896001;28;87204;-62
2022/06/27 06:54:41;;;;;;;1.30;1.20;;;30.00;62.00;30.40;100405.00;;;;4895811;28;107216;-62
2022/06/27 06:57:09;;;;;;;3.15;1.38;;;30.10;62.10;30.60;100409.00;;;;4895611;28;88429;-62
2022/06/27 06:59:36;;;;;;;1.90;1.02;;;30.20;61.70;30.70;100406.00;;;;4895583;28;88765;-63
2022/06/27 07:02:03;;;;;;;1.52;1.42;;;30.30;59.70;30.70;100402.00;;;;4896071;28;87803;-63
2022/06/27 07:04:29;;;;;;;1.75;1.35;;;30.30;58.50;30.70;100405.00;;;;4895983;28;87668;-62
2022/06/27 07:06:56;;;;;;;1.42;1.30;;;30.30;58.70;30.70;100408.00;;;;4879342;28;87929;-61
2022/06/27 07:09:22;;;;;;;4.80;1.52;;;30.30;58.50;30.80;100411.00;;;;4899578;28;88639;-62
2022/06/27 07:11:47;;;;;;;1.67;1.58;;;30.40;58.20;31.00;100406.00;;;;4899003;28;90370;-62
2022/06/27 07:14:15;;;;;;;1.40;1.10;;;30.60;58.30;31.10;100407.00;;;;4899413;28;88043;-62
2022/06/27 07:16:42;;;;;;;2.05;1.00;;;30.70;57.20;31.20;100404.00;;;;4898808;28;88179;-63
2022/06/27 07:19:08;;;;;;;2.90;1.60;;;30.80;56.30;31.20;100395.00;;;;4898653;28;88185;-63
2022/06/27 07:21:34;;;;;;;1.75;1.63;;;30.80;55.90;31.30;100403.00;;;;4898443;28;87969;-62
2022/06/27 07:24:01;;;;;;;1.65;1.20;;;30.90;55.30;31.30;100402.00;;;;4898068;28;88711;-62
2022/06/27 07:26:29;;;;;;;2.58;1.10;;;30.90;55.00;31.30;100403.00;;;;4898432;28;88036;-63
2022/06/27 07:28:56;;;;;;;1.27;1.17;;;31.00;54.80;31.40;100395.00;;;;4898186;28;88883;-63
2022/06/27 07:31:22;;;;;;;0.80;0.70;;;31.00;54.10;31.40;100389.00;;;;4898428;28;87622;-63
2022/06/27 07:33:51;;;;;;;1.73;1.52;;;31.00;54.30;31.50;100391.00;;;;4879769;28;94767;-63
2022/06/27 07:36:19;;;;;;;2.13;1.95;;;31.10;53.90;31.50;100393.00;;;;4898776;28;89312;-63
2022/06/27 07:38:49;;;;;;;1.10;1.00;;;31.10;53.60;31.60;100392.00;;;;4897987;28;88635;-62
2022/06/27 07:41:19;;;;;;;2.40;1.23;;;31.20;54.10;31.90;100388.00;;;;4898345;28;86986;-62
2022/06/27 07:43:47;;;;;;;1.25;1.15;;;31.40;53.30;32.10;100386.00;;;;4899214;28;87684;-63
2022/06/27 07:46:15;;;;;;;2.22;1.17;;;31.60;52.60;32.30;100392.00;;;;4899523;28;88322;-63
2022/06/27 07:48:41;;;;;;;2.10;1.50;;;31.80;52.20;32.40;100390.00;;;;4896891;28;89015;-62
2022/06/27 07:51:08;;;;;;;5.43;1.92;;;31.90;51.60;32.50;100383.00;;;;4897589;28;100344;-63
2022/06/27 07:53:41;;;;;;;1.48;1.35;;;32.00;50.80;32.50;100383.00;;;;4898714;28;87611;-62
2022/06/27 07:56:07;;;;;;;1.75;1.02;;;32.10;50.90;32.50;100376.00;;;;4897804;28;88670;-63
2022/06/27 07:58:38;;;;;;;1.67;1.52;;;32.10;50.60;32.50;100374.00;;;;4897895;28;117790;-62
2022/06/27 08:01:07;;;;;;;1.98;1.20;;;32.20;50.50;32.40;100372.00;;;;4898515;28;87763;-63
2022/06/27 08:03:38;;;;;;;1.55;1.45;;;32.10;50.40;32.50;100359.00;;;;4898529;28;87801;-63
2022/06/27 08:06:25;;;;;;;15.98;1.75;;;32.10;50.00;32.60;100352.00;;;;4898911;28;88635;-62
2022/06/27 08:08:58;;;;;;;2.90;1.15;;;32.20;49.50;32.60;100359.00;;;;4898002;28;88182;-62
2022/06/27 08:11:33;;;;;;;2.00;1.02;;;32.30;49.20;32.70;100373.00;;;;4897523;28;87580;-62
2022/06/27 08:14:05;;;;;;;1.52;1.27;;;32.30;49.10;32.70;100373.00;;;;4896210;28;101198;-62
2022/06/27 08:16:33;;;;;;;2.75;1.42;;;32.30;48.50;32.70;100370.00;;;;4897706;28;88372;-62
2022/06/27 08:19:00;;;;;;;1.00;0.90;;;32.30;48.50;32.60;100361.00;;;;4897861;28;108871;-62
2022/06/27 08:21:27;;;;;;;2.40;1.20;;;32.30;48.60;32.70;100362.00;;;;4898398;28;87864;-63
2022/06/27 08:23:58;;;;;;;4.10;1.15;;;32.30;48.80;32.80;100370.00;;;;4898222;28;87863;-63
2022/06/27 08:26:25;;;;;;;1.27;1.05;;;32.40;47.10;32.80;100365.00;;;;4897723;28;89097;-63
2022/06/27 08:28:52;;;;;;;1.80;1.63;;;32.50;47.70;32.90;100368.00;;;;4897374;28;88590;-63
2022/06/27 08:31:19;;;;;;;3.60;1.40;;;32.50;47.00;33.00;100372.00;;;;4898984;28;87328;-63
2022/06/27 08:33:46;;;;;;;1.33;1.15;;;32.60;47.30;33.10;100370.00;;;;4897905;28;87632;-63
2022/06/27 08:36:15;;;;;;;1.20;1.10;;;32.60;47.50;33.20;100380.00;;;;4898171;28;88706;-64
2022/06/27 08:38:50;;;;;;;1.25;1.15;;;32.80;47.30;33.30;100388.00;;;;4897503;28;88613;-63
2022/06/27 08:41:23;;;;;;;1.65;1.33;;;32.90;47.20;33.50;100373.00;;;;4895686;28;87975;-63
2022/06/27 08:43:55;;;;;;;1.63;1.45;;;33.00;46.50;33.60;100378.00;;;;4898567;28;87768;-63
2022/06/27 08:46:22;;;;;;;1.13;0.98;;;33.10;46.10;33.70;100373.00;;;;4897409;28;88911;-62
2022/06/27 08:48:49;;;;;;;1.50;1.10;;;33.20;46.20;33.80;100377.00;;;;4897187;28;88478;-63
2022/06/27 08:51:15;;;;;;;2.10;1.10;;;33.30;46.30;34.00;100373.00;;;;4897934;28;87758;-63
2022/06/27 08:53:41;;;;;;;1.20;1.10;;;33.50;45.30;34.00;100370.00;;;;4897996;28;87806;-63
2022/06/27 08:56:10;;;;;;;1.35;1.25;;;33.50;45.10;34.10;100378.00;;;;4898286;28;88544;-62
2022/06/27 08:58:37;;;;;;;1.20;1.08;;;33.60;45.10;34.10;100378.00;;;;4897331;28;87761;-63
2022/06/27 09:01:04;;;;;;;1.33;1.15;;;33.70;44.20;34.20;100373.00;;;;4898173;28;87829;-62
2022/06/27 09:03:32;;;;;;;1.13;1.00;;;33.70;44.90;34.10;100365.00;;;;4897624;28;88652;-62
2022/06/27 09:06:05;;;;;;;2.38;1.05;;;33.70;43.10;34.10;100365.00;;;;4897682;28;89013;-63
2022/06/27 09:08:37;;;;;;;0.90;0.90;;;33.70;43.00;34.10;100361.00;;;;4896868;28;88183;-62
2022/06/27 09:11:04;;;;;;;0.80;0.73;;;33.70;43.10;34.20;100360.00;;;;4895513;28;87556;-62
2022/06/27 09:13:31;;;;;;;2.00;1.00;;;33.80;41.60;34.10;100363.00;;;;4897065;28;88911;-62
2022/06/27 09:16:03;;;;;;;0.82;0.70;;;33.70;41.20;34.00;100360.00;;;;4897664;28;88839;-62
2022/06/27 09:18:37;;;;;;;1.15;1.05;;;33.70;41.70;34.10;100348.00;;;;4897008;28;88649;-63
2022/06/27 09:21:07;;;;;;;1.48;1.35;;;33.70;41.00;34.30;100341.00;;;;4897604;28;87024;-62
2022/06/27 09:23:47;;;;;;;1.73;1.17;;;33.80;41.20;34.50;100344.00;;;;4897716;28;88210;-62
2022/06/27 09:26:21;;;;;;;1.13;0.90;;;34.00;40.60;34.60;100356.00;;;;4896093;28;88695;-63
2022/06/27 09:29:10;;;;;;;1.20;1.10;;;34.10;39.60;34.60;100364.00;;;;4896064;28;88959;-63
2022/06/27 09:31:42;;;;;;;3.25;0.52;;;34.10;39.60;34.60;100360.00;;;;4898713;28;87652;-63
2022/06/27 09:34:21;;;;;;;2.08;1.15;;;34.20;39.60;34.60;100358.00;;;;4896002;28;87838;-62
2022/06/27 09:36:56;;;;;;;1.17;0.80;;;34.10;39.50;34.70;100356.00;;;;4897018;28;87608;-63
2022/06/27 09:39:39;;;;;;;0.85;0.57;;;34.20;39.60;34.90;100354.00;;;;4896823;28;88606;-63
2022/06/27 09:42:13;;;;;;;1.70;1.02;;;34.40;39.70;35.20;100352.00;;;;4896107;28;108863;-62
2022/06/27 09:44:45;;;;;;;1.25;0.75;;;34.50;39.00;35.40;100355.00;;;;4896825;28;87979;-62
2022/06/27 09:47:20;;;;;;;0.90;0.82;;;34.80;39.00;35.60;100350.00;;;;4898023;28;87418;-63
2022/06/27 09:49:50;;;;;;;0.80;0.73;;;35.00;38.10;35.50;100349.00;;;;4897543;28;87784;-63
2022/06/27 09:52:20;;;;;;;1.13;0.80;;;35.00;37.70;35.50;100347.00;;;;4896899;28;87999;-62
2022/06/27 09:54:48;;;;;;;1.85;1.08;;;35.00;37.90;35.60;100345.00;;;;4896729;28;88780;-62
2022/06/27 09:57:16;;;;;;;1.30;1.20;;;35.10;38.00;35.90;100345.00;;;;4896315;28;89000;-62
2022/06/27 09:59:44;;;;;;;1.75;1.35;;;35.30;37.60;35.90;100346.00;;;;4897114;28;88121;-63
2022/06/27 10:02:22;;;;;;;1.50;0.95;;;35.40;36.90;36.00;100349.00;;;;4897206;28;87820;-63
2022/06/27 10:04:49;;;;;;;1.00;0.90;;;35.40;37.40;35.90;100339.00;;;;4897343;28;87929;-62
2022/06/27 10:07:17;;;;;;;0.90;0.90;;;35.40;36.70;35.60;100344.00;;;;4896440;28;88217;-62
2022/06/27 10:09:44;;;;;;;0.80;0.77;;;35.20;37.20;35.60;100341.00;;;;4896369;28;88565;-63
2022/06/27 10:12:36;;;;;;;0.68;0.68;;;35.10;37.90;35.60;100341.00;;;;4878934;28;86877;-63
2022/06/27 10:15:22;;;;;;;1.20;1.10;;;35.10;38.00;35.60;100331.00;;;;4896793;28;87899;-62
2022/06/27 10:17:49;;;;;;;4.00;0.90;;;35.10;37.30;35.60;100331.00;;;;4896809;28;87780;-63
2022/06/27 10:20:36;;;;;;;3.08;1.10;;;35.10;37.50;35.50;100339.00;;;;4896154;28;92720;-63
2022/06/27 10:23:11;;;;;;;0.90;0.90;;;35.10;37.50;35.50;100341.00;;;;4895713;28;87861;-63
2022/06/27 10:25:39;;;;;;;1.10;0.98;;;35.10;37.40;35.50;100338.00;;;;4895239;28;102569;-63
2022/06/27 10:28:08;;;;;;;0.60;0.60;;;35.00;38.00;35.60;100337.00;;;;4896528;28;88718;-63
2022/06/27 10:30:44;;;;;;;0.82;0.65;;;35.10;38.20;35.70;100326.00;;;;4896500;28;88887;-62
2022/06/27 10:33:19;;;;;;;0.77;0.55;;;35.10;37.90;35.80;100323.00;;;;4895306;28;87620;-63
2022/06/27 10:35:57;;;;;;;2.05;0.95;;;35.20;38.00;35.90;100332.00;;;;4896713;28;87984;-63
2022/06/27 10:38:48;;;;;;;1.10;0.52;;;35.30;38.30;36.00;100322.00;;;;4896417;28;88153;-63
2022/06/27 10:41:21;;;;;;;0.73;0.73;;;35.50;37.90;36.10;100323.00;;;;4898935;28;87825;-63
2022/06/27 10:43:51;;;;;;;1.80;1.00;;;35.50;37.80;36.10;100317.00;;;;4900008;28;87808;-62
2022/06/27 10:46:16;;;;;;;0.70;0.70;;;35.50;37.70;36.10;100323.00;;;;4899014;28;88802;-63
2022/06/27 10:48:47;;;;;;;1.65;0.55;;;35.60;37.60;36.30;100316.00;;;;4898302;28;118139;-63
2022/06/27 10:51:19;;;;;;;1.42;0.80;;;35.70;36.80;36.60;100304.00;;;;4898813;28;104594;-63